createdAt,value
2018-06-08T00:02:27.992Z,16.63
2018-06-08T00:04:57.713Z,16.00
2018-06-08T00:07:27.395Z,16.47
2018-06-08T00:09:57.073Z,15.97
2018-06-08T00:12:26.822Z,16.00
2018-06-08T00:14:56.499Z,15.53
2018-06-08T00:17:26.147Z,14.07
2018-06-08T00:19:55.899Z,13.70
2018-06-08T00:22:25.586Z,13.40
2018-06-08T00:24:55.235Z,14.03
2018-06-08T00:27:24.869Z,14.07
2018-06-08T00:29:54.551Z,13.33
2018-06-08T00:32:24.282Z,13.73
2018-06-08T00:34:53.997Z,12.67
2018-06-08T00:37:23.717Z,14.00
2018-06-08T00:39:53.348Z,12.23
2018-06-08T00:42:22.973Z,13.20
2018-06-08T00:44:52.660Z,12.80
2018-06-08T00:47:22.348Z,12.80
2018-06-08T00:49:52.106Z,13.10
2018-06-08T00:52:21.800Z,12.30
2018-06-08T00:54:51.441Z,11.80
2018-06-08T00:57:21.101Z,12.33
2018-06-08T00:59:50.775Z,12.43
2018-06-08T01:02:20.521Z,13.33
2018-06-08T01:04:50.229Z,13.43
2018-06-08T01:07:20.077Z,13.83
2018-06-08T01:09:49.765Z,14.00
2018-06-08T01:12:19.406Z,15.03
2018-06-08T01:14:49.070Z,14.90
2018-06-08T01:17:18.756Z,14.93
2018-06-08T01:19:48.446Z,15.60
2018-06-08T01:25:38.173Z,16.40
2018-06-08T01:28:19.807Z,17.50
2018-06-08T01:30:49.594Z,17.73
2018-06-08T01:33:19.304Z,17.80
2018-06-08T01:35:48.954Z,18.80
2018-06-08T01:38:18.633Z,17.60
2018-06-08T01:40:48.339Z,18.10
2018-06-08T01:43:18.033Z,17.77
2018-06-08T01:45:47.672Z,15.70
2018-06-08T01:48:17.353Z,15.50
2018-06-08T01:50:47.081Z,14.53
2018-06-08T01:53:16.799Z,15.27
2018-06-08T01:55:46.439Z,13.30
2018-06-08T01:58:16.194Z,13.27
2018-06-08T02:00:45.852Z,13.37
2018-06-08T02:03:15.538Z,12.73
2018-06-08T02:05:45.214Z,12.13
2018-06-08T02:08:14.296Z,12.37
2018-06-08T02:10:43.937Z,11.50
2018-06-08T02:13:13.653Z,11.30
2018-06-08T02:15:43.310Z,12.13
2018-06-08T02:18:12.983Z,10.77
2018-06-08T02:20:42.986Z,11.73
2018-06-08T02:23:12.678Z,11.03
2018-06-08T02:25:42.329Z,11.23
2018-06-08T02:28:12.067Z,10.90
2018-06-08T02:30:41.783Z,11.07
2018-06-08T02:33:11.572Z,10.63
2018-06-08T02:35:41.304Z,10.40
2018-06-08T02:38:11.013Z,10.47
2018-06-08T02:40:40.703Z,10.30
2018-06-08T02:43:10.619Z,9.63
2018-06-08T02:45:40.606Z,9.70
2018-06-08T02:48:10.505Z,8.43
2018-06-08T02:50:40.327Z,8.77
2018-06-08T02:53:10.017Z,8.47
2018-06-08T02:55:39.086Z,8.33
2018-06-08T02:58:08.774Z,8.17
2018-06-08T03:00:38.460Z,7.80
2018-06-08T03:03:08.120Z,8.90
2018-06-08T03:05:38.877Z,8.80
2018-06-08T03:08:08.647Z,8.37
2018-06-08T03:10:38.384Z,8.77
2018-06-08T03:13:08.762Z,8.60
2018-06-08T03:15:38.463Z,8.50
2018-06-08T03:18:08.173Z,8.43
2018-06-08T03:20:37.811Z,10.20
2018-06-08T03:23:07.592Z,9.07
2018-06-08T03:25:37.305Z,9.70
2018-06-08T03:28:07.010Z,15.17
2018-06-08T03:30:38.647Z,7.70
2018-06-08T03:33:08.400Z,4.20
2018-06-08T03:35:38.141Z,3.47
2018-06-08T03:38:07.897Z,3.93
2018-06-08T03:40:37.536Z,4.63
2018-06-08T03:43:07.230Z,4.83
2018-06-08T03:45:37.536Z,4.93
2018-06-08T03:48:07.289Z,5.27
2018-06-08T03:50:37.102Z,5.63
2018-06-08T03:53:06.775Z,4.80
2018-06-08T03:55:36.530Z,5.03
2018-06-08T03:58:06.261Z,4.90
2018-06-08T04:00:35.993Z,5.27
2018-06-08T04:03:05.684Z,3.97
2018-06-08T04:05:37.205Z,6.10
2018-06-08T04:08:06.948Z,5.63
2018-06-08T04:10:36.626Z,5.00
2018-06-08T04:13:06.782Z,4.57
2018-06-08T04:15:36.391Z,5.57
2018-06-08T04:18:06.171Z,5.00
2018-06-08T04:20:35.883Z,5.13
2018-06-08T04:23:05.529Z,4.70
2018-06-08T04:25:35.442Z,5.33
2018-06-08T04:28:05.130Z,5.10
2018-06-08T04:30:34.844Z,4.97
2018-06-08T04:33:04.739Z,4.87
2018-06-08T04:35:34.346Z,5.30
2018-06-08T04:38:04.449Z,5.23
2018-06-08T04:40:34.205Z,4.63
2018-06-08T04:43:03.936Z,5.23
2018-06-08T04:45:33.655Z,4.90
2018-06-08T04:48:03.421Z,5.80
2018-06-08T04:50:33.133Z,5.60
2018-06-08T04:53:06.647Z,5.90
2018-06-08T04:55:36.690Z,5.10
2018-06-08T04:58:06.374Z,5.23
2018-06-08T05:00:36.010Z,4.60
2018-06-08T05:03:05.746Z,5.17
2018-06-08T05:05:35.364Z,4.70
2018-06-08T05:08:05.068Z,4.47
2018-06-08T05:10:34.742Z,4.00
2018-06-08T05:13:04.510Z,4.20
2018-06-08T05:15:34.626Z,4.63
2018-06-08T05:18:04.345Z,4.80
2018-06-08T05:20:34.072Z,5.43
2018-06-08T05:23:03.758Z,4.80
2018-06-08T05:25:33.426Z,4.50
2018-06-08T05:28:09.681Z,4.70
2018-06-08T05:30:39.366Z,4.57
2018-06-08T05:33:09.036Z,5.20
2018-06-08T05:35:38.735Z,4.33
2018-06-08T05:38:08.373Z,4.40
2018-06-08T05:40:38.081Z,4.50
2018-06-08T05:43:07.759Z,3.20
2018-06-08T05:45:37.412Z,3.90
2018-06-08T05:48:07.119Z,3.97
2018-06-08T05:50:36.819Z,4.10
2018-06-08T05:53:07.427Z,4.30
2018-06-08T05:55:37.177Z,3.70
2018-06-08T05:58:06.868Z,4.30
2018-06-08T06:00:36.561Z,4.70
2018-06-08T06:03:06.250Z,3.83
2018-06-08T06:05:35.926Z,4.40
2018-06-08T06:08:05.635Z,4.40
2018-06-08T06:10:35.327Z,5.00
2018-06-08T06:13:05.007Z,4.80
2018-06-08T06:15:34.702Z,4.70
2018-06-08T06:18:04.458Z,4.83
2018-06-08T06:20:34.139Z,4.80
2018-06-08T06:23:03.743Z,5.53
2018-06-08T06:25:33.486Z,5.60
2018-06-08T06:28:03.409Z,5.77
2018-06-08T06:30:33.066Z,5.70
2018-06-08T06:33:02.769Z,5.23
2018-06-08T06:35:32.511Z,5.40
2018-06-08T06:38:02.258Z,5.37
2018-06-08T06:40:31.953Z,5.37
2018-06-08T06:43:01.744Z,5.70
2018-06-08T06:45:31.425Z,5.80
2018-06-08T06:48:01.103Z,5.03
2018-06-08T06:50:30.794Z,4.63
2018-06-08T06:53:00.539Z,4.60
2018-06-08T06:55:30.427Z,4.60
2018-06-08T06:58:00.074Z,3.77
2018-06-08T07:00:29.743Z,4.37
2018-06-08T07:02:59.510Z,5.07
2018-06-08T07:05:29.180Z,4.03
2018-06-08T07:07:58.973Z,4.67
2018-06-08T07:10:29.050Z,4.77
2018-06-08T07:12:58.772Z,5.00
2018-06-08T07:15:29.967Z,4.10
2018-06-08T07:17:59.761Z,4.43
2018-06-08T07:20:29.497Z,3.90
2018-06-08T07:22:59.233Z,4.30
2018-06-08T07:25:28.985Z,4.50
2018-06-08T07:27:58.779Z,4.20
2018-06-08T07:30:28.459Z,4.00
2018-06-08T07:33:02.197Z,3.87
2018-06-08T07:35:31.935Z,4.00
2018-06-08T07:38:01.755Z,4.07
2018-06-08T07:40:31.460Z,4.50
2018-06-08T07:43:01.366Z,4.27
2018-06-08T07:45:31.084Z,4.57
2018-06-08T07:48:00.856Z,3.80
2018-06-08T07:50:30.608Z,4.40
2018-06-08T07:53:04.760Z,3.87
2018-06-08T07:55:38.828Z,3.90
2018-06-08T07:58:08.513Z,3.40
2018-06-08T08:00:38.876Z,3.93
2018-06-08T08:03:10.626Z,3.70
2018-06-08T08:05:40.668Z,3.83
2018-06-08T08:08:13.026Z,3.63
2018-06-08T08:10:42.897Z,3.60
2018-06-08T08:13:12.684Z,3.77
2018-06-08T08:15:43.626Z,3.50
2018-06-08T08:18:13.277Z,3.98
2018-06-08T08:20:42.920Z,3.70
2018-06-08T08:23:15.851Z,4.07
2018-06-08T08:26:48.373Z,3.77
2018-06-08T08:29:18.066Z,3.22
2018-06-08T08:31:47.808Z,2.97
2018-06-08T08:34:17.535Z,2.93
2018-06-08T08:36:46.658Z,2.90
2018-06-08T08:39:16.427Z,2.83
2018-06-08T08:41:46.102Z,3.10
2018-06-08T08:44:15.733Z,3.07
2018-06-08T08:46:45.420Z,3.30
2018-06-08T08:49:15.086Z,3.20
2018-06-08T08:51:44.739Z,2.70
2018-06-08T08:54:14.433Z,2.80
2018-06-08T08:56:44.082Z,2.10
2018-06-08T08:59:13.823Z,2.00
2018-06-08T09:01:43.444Z,2.43
2018-06-08T09:04:13.121Z,2.43
2018-06-08T09:06:42.841Z,2.00
2018-06-08T09:09:12.490Z,2.07
2018-06-08T09:11:42.223Z,2.30
2018-06-08T09:14:11.929Z,1.90
2018-06-08T09:16:41.625Z,2.07
2018-06-08T09:19:11.370Z,2.40
2018-06-08T09:21:40.980Z,2.20
2018-06-08T09:24:13.657Z,2.23
2018-06-08T09:26:44.440Z,1.90
2018-06-08T09:29:14.205Z,2.20
2018-06-08T09:31:43.871Z,2.00
2018-06-08T09:34:13.595Z,2.10
2018-06-08T09:36:43.365Z,2.03
2018-06-08T09:39:13.170Z,2.00
2018-06-08T09:41:42.961Z,2.00
2018-06-08T09:44:14.671Z,1.60
2018-06-08T09:46:44.452Z,1.80
2018-06-08T09:49:14.316Z,2.13
2018-06-08T09:51:44.010Z,1.80
2018-06-08T09:54:13.744Z,2.40
2018-06-08T09:56:45.509Z,2.37
2018-06-08T09:59:15.193Z,1.90
2018-06-08T10:01:44.978Z,1.87
2018-06-08T10:04:15.744Z,1.60
2018-06-08T10:06:46.533Z,1.80
2018-06-08T10:09:16.276Z,1.70
2018-06-08T10:11:45.996Z,1.73
2018-06-08T10:14:16.788Z,1.80
2018-06-08T10:16:46.588Z,2.00
2018-06-08T10:19:16.434Z,2.00
2018-06-08T10:21:46.248Z,1.50
2018-06-08T10:24:16.025Z,1.90
2018-06-08T10:26:45.737Z,1.90
2018-06-08T10:29:15.398Z,1.90
2018-06-08T10:31:45.912Z,1.37
2018-06-08T10:34:15.702Z,1.77
2018-06-08T10:36:45.555Z,2.00
2018-06-08T10:39:15.416Z,1.70
2018-06-08T10:41:45.347Z,1.97
2018-06-08T10:44:15.137Z,2.37
2018-06-08T10:46:44.902Z,1.97
2018-06-08T10:49:14.601Z,2.00
2018-06-08T10:51:44.319Z,1.63
2018-06-08T10:54:14.294Z,2.20
2018-06-08T10:56:44.036Z,2.17
2018-06-08T10:59:13.733Z,1.70
2018-06-08T11:01:43.393Z,1.73
2018-06-08T11:04:13.077Z,1.80
2018-06-08T11:06:42.828Z,2.08
2018-06-08T11:09:12.527Z,2.20
2018-06-08T11:11:42.479Z,1.70
2018-06-08T11:14:12.162Z,1.87
2018-06-08T11:16:41.943Z,1.80
2018-06-08T11:19:11.618Z,1.77
2018-06-08T11:21:41.502Z,2.00
2018-06-08T11:24:11.270Z,2.00
2018-06-08T11:26:41.001Z,1.77
2018-06-08T11:29:10.757Z,2.00
2018-06-08T11:31:40.467Z,1.80
2018-06-08T11:34:10.273Z,2.03
2018-06-08T11:36:39.994Z,2.10
2018-06-08T11:39:10.748Z,2.00
2018-06-08T11:41:42.910Z,2.53
2018-06-08T11:44:12.642Z,2.17
2018-06-08T11:46:42.377Z,2.40
2018-06-08T11:49:12.085Z,2.20
2018-06-08T11:51:42.837Z,2.37
2018-06-08T11:54:16.272Z,2.20
2018-06-08T11:56:45.962Z,2.70
2018-06-08T11:59:15.651Z,2.30
2018-06-08T12:01:45.612Z,2.30
2018-06-08T12:04:15.347Z,2.07
2018-06-08T12:06:45.099Z,2.50
2018-06-08T12:09:14.796Z,2.40
2018-06-08T12:11:46.787Z,1.90
2018-06-08T12:14:16.540Z,2.20
2018-06-08T12:16:46.248Z,2.10
2018-06-08T12:19:15.980Z,1.97
2018-06-08T12:21:45.728Z,2.23
2018-06-08T12:24:15.471Z,2.00
2018-06-08T12:26:45.204Z,2.20
2018-06-08T12:29:14.951Z,3.50
2018-06-08T12:31:44.676Z,2.40
2018-06-08T12:34:14.379Z,2.42
2018-06-08T12:36:44.010Z,2.40
2018-06-08T12:39:13.695Z,2.10
2018-06-08T12:41:43.391Z,1.93
2018-06-08T12:44:13.100Z,2.30
2018-06-08T12:46:42.777Z,1.90
2018-06-08T12:49:12.423Z,2.33
2018-06-08T12:51:42.126Z,2.37
2018-06-08T12:54:11.869Z,2.25
2018-06-08T12:56:41.697Z,1.72
2018-06-08T12:59:11.465Z,2.00
2018-06-08T13:01:41.599Z,2.20
2018-06-08T13:04:11.435Z,2.00
2018-06-08T13:06:41.083Z,2.07
2018-06-08T13:09:10.762Z,2.50
2018-06-08T13:11:40.526Z,2.47
2018-06-08T13:14:10.258Z,2.10
2018-06-08T13:16:39.926Z,1.98
2018-06-08T13:19:09.636Z,2.00
2018-06-08T13:21:39.349Z,1.93
2018-06-08T13:24:09.037Z,1.77
2018-06-08T13:26:38.796Z,1.65
2018-06-08T13:29:08.574Z,1.37
2018-06-08T13:31:38.229Z,1.57
2018-06-08T13:34:07.911Z,1.72
2018-06-08T13:36:37.638Z,1.90
2018-06-08T13:39:08.466Z,1.90
2018-06-08T13:41:38.202Z,1.90
2018-06-08T13:44:07.940Z,1.80
2018-06-08T13:46:44.680Z,1.95
2018-06-08T13:49:14.353Z,2.00
2018-06-08T13:51:43.988Z,1.90
2018-06-08T13:54:13.626Z,1.80
2018-06-08T13:56:43.309Z,2.33
2018-06-08T13:59:13.064Z,1.77
2018-06-08T14:01:42.766Z,1.80
2018-06-08T14:04:12.466Z,1.60
2018-06-08T14:06:42.132Z,1.77
2018-06-08T14:09:11.911Z,1.50
2018-06-08T14:11:47.954Z,1.57
2018-06-08T14:14:17.654Z,1.60
2018-06-08T14:16:47.353Z,1.70
2018-06-08T14:19:17.040Z,1.65
2018-06-08T14:21:46.787Z,2.12
2018-06-08T14:24:16.454Z,1.70
2018-06-08T14:26:46.115Z,2.12
2018-06-08T14:29:15.870Z,1.90
2018-06-08T14:31:45.621Z,1.87
2018-06-08T14:34:15.299Z,1.60
2018-06-08T14:36:45.037Z,1.80
2018-06-08T14:39:14.681Z,1.90
2018-06-08T14:41:44.370Z,1.72
2018-06-08T14:44:14.131Z,1.65
2018-06-08T14:46:43.913Z,1.80
2018-06-08T14:49:13.594Z,1.70
2018-06-08T14:51:43.311Z,1.98
2018-06-08T14:54:13.101Z,1.75
2018-06-08T14:56:42.726Z,1.80
2018-06-08T14:59:12.404Z,1.60
2018-06-08T15:01:42.124Z,1.72
2018-06-08T15:04:11.787Z,1.75
2018-06-08T15:06:41.487Z,1.70
2018-06-08T15:09:11.175Z,1.72
2018-06-08T15:11:40.790Z,1.60
2018-06-08T15:14:10.551Z,1.67
2018-06-08T15:16:40.276Z,1.55
2018-06-08T15:19:10.020Z,1.97
2018-06-08T15:21:39.737Z,1.80
2018-06-08T15:24:09.430Z,2.60
2018-06-08T15:26:39.134Z,2.10
2018-06-08T15:29:08.835Z,18.20
2018-06-08T15:31:38.514Z,1.92
2018-06-08T15:34:08.238Z,2.10
2018-06-08T15:36:37.953Z,2.72
2018-06-08T15:39:09.288Z,2.47
2018-06-08T15:41:38.981Z,2.33
2018-06-08T15:44:08.626Z,2.58
2018-06-08T15:46:38.396Z,2.12
2018-06-08T15:49:08.194Z,2.02
2018-06-08T15:51:38.790Z,2.62
2018-06-08T15:54:08.528Z,2.42
2018-06-08T15:56:38.375Z,2.12
2018-06-08T15:59:08.224Z,2.20
2018-06-08T16:01:37.960Z,2.42
2018-06-08T16:04:10.933Z,2.10
2018-06-08T16:06:40.718Z,2.20
2018-06-08T16:09:10.430Z,2.25
2018-06-08T16:11:40.052Z,2.25
2018-06-08T16:14:09.692Z,2.47
2018-06-08T16:16:39.366Z,2.42
2018-06-08T16:19:09.422Z,2.37
2018-06-08T16:21:40.691Z,2.20
2018-06-08T16:24:11.241Z,2.00
2018-06-08T16:26:41.650Z,2.45
2018-06-08T16:29:12.669Z,2.60
2018-06-08T16:31:42.894Z,2.37
2018-06-08T16:34:13.502Z,2.60
2018-06-08T16:36:43.496Z,3.00
2018-06-08T16:39:13.353Z,2.60
2018-06-08T16:41:43.847Z,2.50
2018-06-08T16:44:13.862Z,2.53
2018-06-08T16:46:44.142Z,2.70
2018-06-08T16:49:14.494Z,2.30
2018-06-08T16:51:44.983Z,3.00
2018-06-08T16:54:14.741Z,2.93
2018-06-08T16:56:44.559Z,3.17
2018-06-08T16:59:14.290Z,3.40
2018-06-08T17:01:44.036Z,3.67
2018-06-08T17:04:13.737Z,4.90
2018-06-08T17:06:43.443Z,4.10
2018-06-08T17:09:13.112Z,4.63
2018-06-08T17:11:42.824Z,4.83
2018-06-08T17:14:12.619Z,4.27
2018-06-08T17:16:42.420Z,4.50
2018-06-08T17:19:13.589Z,3.77
2018-06-08T17:21:43.855Z,4.17
2018-06-08T17:24:13.900Z,3.80
2018-06-08T17:26:43.645Z,3.70
2018-06-08T17:29:13.340Z,4.07
2018-06-08T17:31:43.253Z,4.23
2018-06-08T17:34:13.208Z,4.03
2018-06-08T17:36:43.098Z,4.03
2018-06-08T17:39:13.831Z,4.03
2018-06-08T17:41:43.851Z,4.10
2018-06-08T17:44:13.557Z,4.23
2018-06-08T17:46:43.282Z,4.87
2018-06-08T17:49:13.199Z,4.37
2018-06-08T17:51:43.366Z,4.73
2018-06-08T17:54:13.172Z,5.10
2018-06-08T17:56:43.409Z,4.70
2018-06-08T17:59:13.239Z,5.83
2018-06-08T18:01:43.440Z,6.37
2018-06-08T18:04:13.461Z,5.50
2018-06-08T18:06:43.880Z,6.33
2018-06-08T18:09:14.562Z,6.37
2018-06-08T18:11:44.690Z,5.73
2018-06-08T18:14:14.773Z,6.17
2018-06-08T18:16:44.680Z,5.77
2018-06-08T18:19:13.729Z,5.17
2018-06-08T18:21:45.099Z,5.70
2018-06-08T18:24:15.012Z,5.57
2018-06-08T18:26:45.089Z,6.37
2018-06-08T18:29:15.064Z,6.07
2018-06-08T18:31:45.042Z,6.97
2018-06-08T18:34:14.728Z,6.40
2018-06-08T18:36:44.397Z,6.37
2018-06-08T18:39:14.120Z,6.53
2018-06-08T18:41:43.736Z,7.00
2018-06-08T18:44:13.479Z,6.93
2018-06-08T18:46:43.113Z,7.13
2018-06-08T18:49:12.754Z,6.80
2018-06-08T18:51:43.550Z,6.50
2018-06-08T18:54:13.227Z,7.13
2018-06-08T18:56:42.860Z,6.90
2018-06-08T18:59:12.604Z,6.90
2018-06-08T19:01:42.256Z,6.47
2018-06-08T19:04:11.985Z,6.70
2018-06-08T19:06:41.674Z,6.87
2018-06-08T19:09:11.385Z,7.30
2018-06-08T19:11:41.055Z,6.83
2018-06-08T19:14:10.773Z,7.30
2018-06-08T19:16:40.379Z,6.43
2018-06-08T19:19:10.038Z,6.77
2018-06-08T19:21:39.755Z,5.93
2018-06-08T19:24:09.510Z,7.23
2018-06-08T19:26:39.170Z,6.10
2018-06-08T19:29:08.859Z,6.57
2018-06-08T19:31:37.923Z,6.50
2018-06-08T19:34:07.812Z,6.43
2018-06-08T19:36:37.535Z,6.97
2018-06-08T19:39:09.849Z,7.07
2018-06-08T19:41:39.653Z,3.77
2018-06-08T19:44:09.288Z,3.33
2018-06-08T19:46:38.933Z,3.30
2018-06-08T19:49:08.664Z,3.23
2018-06-08T19:51:38.297Z,2.80
2018-06-08T19:54:07.909Z,3.23
2018-06-08T19:56:37.631Z,3.10
2018-06-08T19:59:07.360Z,2.83
2018-06-08T20:01:37.190Z,3.30
2018-06-08T20:04:06.851Z,3.93
2018-06-08T20:06:36.469Z,3.47
2018-06-08T20:09:08.132Z,3.87
2018-06-08T20:11:37.831Z,3.43
2018-06-08T20:14:07.569Z,2.50
2018-06-08T20:16:37.365Z,2.67
2018-06-08T20:19:07.145Z,2.70
2018-06-08T20:21:36.894Z,2.33
2018-06-08T20:24:06.767Z,2.77
2018-06-08T20:26:36.344Z,2.53
2018-06-08T20:29:07.147Z,3.30
2018-06-08T20:31:36.821Z,3.00
2018-06-08T20:34:06.592Z,3.23
2018-06-08T20:36:38.011Z,3.50
2018-06-08T20:39:08.737Z,3.50
2018-06-08T20:41:39.026Z,3.17
2018-06-08T20:44:10.851Z,3.17
2018-06-08T20:46:40.647Z,3.20
2018-06-08T20:49:11.179Z,3.20
2018-06-08T20:51:40.828Z,3.07
2018-06-08T20:54:10.601Z,2.80
2018-06-08T20:56:40.364Z,3.40
2018-06-08T20:59:10.035Z,2.73
2018-06-08T21:01:39.697Z,2.90
2018-06-08T21:04:09.425Z,2.40
2018-06-08T21:06:39.823Z,2.30
2018-06-08T21:09:09.438Z,2.80
2018-06-08T21:11:40.375Z,3.00
2018-06-08T21:14:10.949Z,3.00
2018-06-08T21:16:40.668Z,2.80
2018-06-08T21:19:10.639Z,2.93
2018-06-08T21:21:40.352Z,2.57
2018-06-08T21:24:10.547Z,2.80
2018-06-08T21:26:40.348Z,2.83
2018-06-08T21:29:11.697Z,2.77
2018-06-08T21:31:42.696Z,2.80
2018-06-08T21:34:12.514Z,2.80
2018-06-08T21:36:42.236Z,3.00
2018-06-08T21:39:12.048Z,2.73
2018-06-08T21:41:41.766Z,2.90
2018-06-08T21:44:11.936Z,2.40
2018-06-08T21:46:41.627Z,2.70
2018-06-08T21:49:11.320Z,2.83
2018-06-08T21:51:41.054Z,2.70
2018-06-08T21:54:10.763Z,3.17
2018-06-08T21:56:41.363Z,3.20
2018-06-08T21:59:11.065Z,3.60
2018-06-08T22:01:43.228Z,3.20
2018-06-08T22:04:15.302Z,2.93
2018-06-08T22:06:45.641Z,3.10
2018-06-08T22:09:18.887Z,3.30
2018-06-08T22:11:48.563Z,3.50
2018-06-08T22:14:18.278Z,3.17
2018-06-08T22:16:47.994Z,3.37
2018-06-08T22:19:17.730Z,3.53
2018-06-08T22:21:47.480Z,3.03
2018-06-08T22:24:17.386Z,3.40
2018-06-08T22:26:47.129Z,3.40
2018-06-08T22:29:16.868Z,3.23
2018-06-08T22:31:45.878Z,3.80
2018-06-08T22:34:15.577Z,3.50
2018-06-08T22:36:45.340Z,3.40
2018-06-08T22:39:15.034Z,3.30
2018-06-08T22:41:44.726Z,3.33
2018-06-08T22:44:14.437Z,3.33
2018-06-08T22:46:44.262Z,3.60
2018-06-08T22:49:13.884Z,3.53
2018-06-08T22:51:43.700Z,3.87
2018-06-08T22:54:13.282Z,3.67
2018-06-08T22:56:43.020Z,3.57
2018-06-08T22:59:12.738Z,3.63
2018-06-08T23:01:42.426Z,3.40
2018-06-08T23:04:12.097Z,3.87
2018-06-08T23:06:41.803Z,4.03
2018-06-08T23:09:11.439Z,3.70
2018-06-08T23:11:41.190Z,3.90
2018-06-08T23:14:10.828Z,4.30
2018-06-08T23:16:40.483Z,4.10
2018-06-08T23:19:10.109Z,4.33
2018-06-08T23:21:39.764Z,4.30
2018-06-08T23:24:09.451Z,3.90
2018-06-08T23:26:39.164Z,4.87
2018-06-08T23:29:08.931Z,4.40
2018-06-08T23:31:38.596Z,4.30
2018-06-08T23:34:08.255Z,5.07
2018-06-08T23:36:37.927Z,4.77
2018-06-08T23:39:09.116Z,4.93
2018-06-08T23:41:38.850Z,4.37
2018-06-08T23:44:08.539Z,4.40
2018-06-08T23:46:38.183Z,4.00
2018-06-08T23:49:07.810Z,4.10
2018-06-08T23:51:37.483Z,4.60
2018-06-08T23:54:07.337Z,4.77
2018-06-08T23:56:37.040Z,4.80
2018-06-08T23:59:06.706Z,4.70
